Terminal Aerodrome Forecast
Issued by NWS Mobile, AL

Home | Current Version | Previous Version | Text Only | Print | Product List | Glossary On
Versions: 1 2 3 4 5 6 7 8 9 10 11 12 13 14 15 16 17 18 19 20 21 22 23 24 25 26 27 28 29 30 31 32 33 34 35 36 37 38 39 40 41 42 43 44 45 46
976
FTUS44 KMOB 231449 AAA
TAFPNS
TAF AMD
KPNS 231449Z 2315/2412 09005KT P6SM SCT027 BKN040 OVC045
     FM231800 14010KT P6SM OVC025
      TEMPO 2320/2324 5SM TSRA BKN015CB
     FM240600 15005KT 5SM BR BKN010=

USA.gov is the U.S. government's official web portal to all federal, state and local government web resources and services.